Lebanon, WI

5:03 PM CST en Noviembre 25, 2014 (GMT -0600)
Watertown Municipal | Change Station
CLOSE
Current Station
Aeropuerto
Location: Watertown,
Altura: 833 ft
Estaciones meteorológicas cercanas

Alt 833 ft 43.17 °N, 88.72 °W | Updated 28 minutes ago

Nublado
Nublado
22 ° F
Sensación térmica 15 ° F
N
5
Viento Variable Viento desde SSO

Hoy
Alta -- | Baja -- ° F
--% Posibilidad de precipitaciones
Ayer
Alta -- | Baja -- ° F
Precip. -- pul
7:00 AM 4:23 PM
Creciente, 14% visible
Presión 30.11 pul
Visibilidad 10.0 Millas
Nubes Nublado 1600 ft
Vientos helados 15 ° F
Punto de rocío 18 ° F
Humedad 87%
Precipitaciones 0.01 pul
Espesor de la nieve No disponible.
UV 0 de una escala de 12
Polen .10 de una escala de 12
Calidad del aire No disponible.
Flu Activity No disponible.
METAR KRYV 252235Z AUTO 21004KT 10SM OVC016 M06/M08 A3011 RMK AO2 T10581077

More Conditions Fewer Conditions

Presión 30.11 pul
Visibilidad 10.0 Millas
Nubes Nublado 1600 ft
Vientos helados 15 ° F
Punto de rocío 18 ° F
Humedad 87%
Precipitaciones 0.01 pul
Espesor de la nieve No disponible.
UV 0 de una escala de 12
Polen .10 de una escala de 12
Calidad del aire No disponible.
Flu Activity No disponible.
METAR KRYV 252235Z AUTO 21004KT 10SM OVC016 M06/M08 A3011 RMK AO2 T10581077

More Conditions Fewer Conditions

10-Day Weather Forecast

Almanac

Astronomía

Nov. 25, 2014 Salida Puesta
Hora real
Crepúsculo civil
Crepúsculo náutico
Crepúsculo astronómico
Luna
Horas de luz
Horas de luz
Tomorrow will be .
, % of the Moon is Illuminated

Extremos de hoy

Máximos del estado Bajos del estado

Community

WunderPhotos

Upload Photos

1,773,620 ¡fotos cargadas!

WunderBlogs® & News

Nearby

Calidad del aire

  Calidad del aire Índice AQ Contaminante
Not available.

Grosos de nieve

Estación Profundido Altura

Actividad de terremotos

Ciudad Distance Mag. Tiempo y dato
Magnitud mínima muestra es 2,5.

Temperaturas de aguas costeras

Lugar Temperatura

Estaciones meteorológicas cercanas